createdAt,value
2018-08-10T00:00:38.924Z,92.70
2018-08-10T00:03:09.516Z,92.80
2018-08-10T00:05:38.683Z,92.80
2018-08-10T00:08:07.259Z,92.60
2018-08-10T00:10:35.715Z,92.60
2018-08-10T00:13:04.228Z,92.50
2018-08-10T00:15:32.714Z,92.30
2018-08-10T00:18:01.128Z,92.50
2018-08-10T00:20:29.569Z,92.20
2018-08-10T00:22:58.118Z,92.20
2018-08-10T00:25:26.556Z,92.40
2018-08-10T00:27:54.978Z,92.10
2018-08-10T00:30:23.411Z,92.00
2018-08-10T00:32:51.914Z,92.20
2018-08-10T00:35:20.321Z,92.20
2018-08-10T00:37:49.357Z,92.30
2018-08-10T00:40:22.137Z,92.30
2018-08-10T00:42:50.678Z,92.20
2018-08-10T00:45:19.708Z,92.30
2018-08-10T00:47:48.740Z,92.50
2018-08-10T00:50:17.787Z,92.40
2018-08-10T00:52:46.979Z,92.40
2018-08-10T00:55:16.634Z,92.40
2018-08-10T00:57:45.720Z,92.60
2018-08-10T01:00:17.805Z,92.50
2018-08-10T01:02:46.293Z,92.10
2018-08-10T01:05:14.702Z,91.90
2018-08-10T01:07:43.153Z,91.80
2018-08-10T01:10:17.034Z,91.60
2018-08-10T01:12:45.562Z,91.40
2018-08-10T01:15:15.426Z,91.50
2018-08-10T01:17:44.354Z,91.40
2018-08-10T01:20:23.765Z,91.30
2018-08-10T01:22:57.601Z,91.50
2018-08-10T01:25:27.016Z,91.20
2018-08-10T01:27:57.622Z,91.20
2018-08-10T01:30:27.719Z,91.40
2018-08-10T01:32:56.247Z,91.30
2018-08-10T01:35:25.247Z,91.20
2018-08-10T01:37:54.059Z,91.20
2018-08-10T01:40:22.491Z,91.60
2018-08-10T01:42:51.047Z,91.20
2018-08-10T01:45:19.510Z,91.20
2018-08-10T01:47:47.946Z,91.20
2018-08-10T01:50:16.435Z,91.20
2018-08-10T01:52:44.926Z,91.20
2018-08-10T01:55:13.359Z,91.20
2018-08-10T01:57:48.351Z,91.40
2018-08-10T02:00:16.777Z,91.40
2018-08-10T02:02:45.296Z,91.50
2018-08-10T02:05:14.760Z,91.50
2018-08-10T02:07:43.842Z,91.60
2018-08-10T02:10:15.141Z,91.60
2018-08-10T02:12:44.492Z,91.70
2018-08-10T02:15:14.895Z,91.60
2018-08-10T02:17:43.327Z,91.70
2018-08-10T02:20:13.318Z,91.70
2018-08-10T02:22:41.980Z,91.80
2018-08-10T02:25:12.854Z,91.80
2018-08-10T02:27:42.259Z,91.70
2018-08-10T02:30:12.013Z,91.70
2018-08-10T02:32:41.472Z,91.40
2018-08-10T02:35:09.906Z,91.30
2018-08-10T02:37:39.076Z,91.30
2018-08-10T02:40:12.995Z,91.50
2018-08-10T02:42:41.886Z,91.40
2018-08-10T02:45:10.309Z,91.50
2018-08-10T02:47:38.770Z,91.60
2018-08-10T02:50:07.222Z,91.70
2018-08-10T02:52:35.736Z,91.60
2018-08-10T02:55:05.199Z,91.60
2018-08-10T02:57:33.639Z,91.70
2018-08-10T03:00:02.077Z,91.60
2018-08-10T03:02:30.574Z,91.60
2018-08-10T03:04:59.016Z,91.60
2018-08-10T03:07:27.436Z,91.50
2018-08-10T03:09:55.844Z,91.50
2018-08-10T03:12:24.297Z,91.40
2018-08-10T03:14:52.721Z,91.40
2018-08-10T03:17:21.151Z,91.40
2018-08-10T03:19:49.590Z,91.30
2018-08-10T03:22:18.201Z,91.10
2018-08-10T03:24:46.562Z,91.20
2018-08-10T03:27:14.971Z,91.40
2018-08-10T03:29:43.391Z,91.50
2018-08-10T03:32:11.833Z,91.70
2018-08-10T03:34:40.301Z,91.80
2018-08-10T03:37:08.730Z,92.00
2018-08-10T03:39:37.154Z,92.10
2018-08-10T03:42:05.654Z,92.40
2018-08-10T03:44:34.055Z,92.40
2018-08-10T03:47:02.545Z,92.50
2018-08-10T03:49:30.999Z,92.70
2018-08-10T03:51:59.472Z,93.00
2018-08-10T03:54:27.896Z,93.00
2018-08-10T03:56:56.320Z,93.00
2018-08-10T03:59:24.753Z,92.90
2018-08-10T04:01:53.188Z,92.70
2018-08-10T04:04:21.641Z,92.50
2018-08-10T04:06:50.089Z,92.60
2018-08-10T04:09:18.500Z,92.90
2018-08-10T04:11:46.953Z,92.90
2018-08-10T04:14:15.405Z,93.00
2018-08-10T04:16:43.844Z,93.10
2018-08-10T04:19:12.265Z,93.10
2018-08-10T04:21:40.723Z,93.20
2018-08-10T04:24:09.259Z,93.40
2018-08-10T04:26:37.736Z,93.40
2018-08-10T04:29:06.283Z,93.50
2018-08-10T04:31:34.697Z,93.40
2018-08-10T04:34:03.203Z,93.40
2018-08-10T04:36:31.624Z,93.30
2018-08-10T04:39:00.061Z,93.40
2018-08-10T04:41:28.516Z,93.40
2018-08-10T04:43:56.980Z,93.50
2018-08-10T04:46:25.433Z,93.60
2018-08-10T04:48:54.112Z,93.50
2018-08-10T04:51:22.543Z,93.50
2018-08-10T04:53:51.029Z,93.60
2018-08-10T04:56:19.461Z,93.60
2018-08-10T04:58:47.911Z,93.60
2018-08-10T05:01:16.364Z,93.60
2018-08-10T05:03:44.885Z,93.70
2018-08-10T05:06:13.323Z,93.70
2018-08-10T05:08:41.761Z,93.70
2018-08-10T05:11:10.200Z,93.60
2018-08-10T05:13:38.719Z,93.30
2018-08-10T05:16:07.343Z,93.20
2018-08-10T05:18:35.807Z,93.20
2018-08-10T05:21:04.289Z,93.10
2018-08-10T05:23:32.834Z,93.00
2018-08-10T05:26:01.325Z,92.90
2018-08-10T05:28:29.726Z,93.00
2018-08-10T05:30:58.148Z,93.00
2018-08-10T05:33:26.663Z,93.10
2018-08-10T05:35:55.091Z,93.20
2018-08-10T05:38:23.522Z,93.40
2018-08-10T05:40:52.069Z,93.50
2018-08-10T05:43:20.553Z,93.50
2018-08-10T05:45:49.013Z,93.40
2018-08-10T05:48:17.458Z,93.40
2018-08-10T05:50:45.911Z,93.40
2018-08-10T05:53:14.458Z,93.50
2018-08-10T05:55:42.871Z,93.30
2018-08-10T05:58:11.342Z,92.90
2018-08-10T06:00:39.861Z,92.90
2018-08-10T06:03:08.380Z,92.90
2018-08-10T06:05:36.818Z,92.90
2018-08-10T06:08:05.363Z,92.90
2018-08-10T06:10:33.806Z,92.90
2018-08-10T06:13:02.380Z,92.90
2018-08-10T06:15:30.964Z,92.90
2018-08-10T06:17:59.315Z,92.90
2018-08-10T06:20:27.730Z,92.70
2018-08-10T06:22:56.485Z,92.40
2018-08-10T06:25:24.872Z,92.10
2018-08-10T06:27:53.326Z,91.90
2018-08-10T06:30:21.759Z,91.60
2018-08-10T06:32:50.291Z,91.20
2018-08-10T06:35:18.769Z,91.00
2018-08-10T06:37:47.235Z,90.90
2018-08-10T06:40:15.651Z,90.40
2018-08-10T06:42:44.161Z,90.20
2018-08-10T06:45:12.733Z,90.20
2018-08-10T06:47:41.070Z,90.40
2018-08-10T06:50:09.508Z,90.50
2018-08-10T06:52:38.103Z,90.70
2018-08-10T06:55:06.563Z,90.80
2018-08-10T06:57:35.476Z,90.70
2018-08-10T07:00:04.923Z,90.70
2018-08-10T07:02:33.386Z,90.60
2018-08-10T07:05:01.850Z,90.40
2018-08-10T07:07:30.403Z,90.10
2018-08-10T07:09:58.817Z,90.00
2018-08-10T07:12:27.339Z,89.90
2018-08-10T07:14:55.769Z,89.20
2018-08-10T07:17:24.202Z,87.60
2018-08-10T07:19:52.647Z,86.10
2018-08-10T07:22:21.174Z,86.30
2018-08-10T07:24:49.583Z,86.10
2018-08-10T07:27:18.148Z,85.90
2018-08-10T07:29:46.483Z,85.20
2018-08-10T07:32:15.025Z,85.20
2018-08-10T07:34:43.442Z,84.30
2018-08-10T07:37:11.854Z,83.20
2018-08-10T07:39:40.331Z,83.30
2018-08-10T07:42:08.795Z,82.60
2018-08-10T07:44:37.223Z,82.40
2018-08-10T07:47:05.651Z,83.20
2018-08-10T07:49:34.075Z,84.10
2018-08-10T07:52:02.636Z,83.70
2018-08-10T07:54:31.059Z,84.30
2018-08-10T07:56:59.495Z,85.50
2018-08-10T07:59:27.952Z,86.10
2018-08-10T08:01:56.375Z,86.60
2018-08-10T08:04:24.850Z,86.60
2018-08-10T08:06:53.330Z,85.90
2018-08-10T08:09:21.762Z,86.00
2018-08-10T08:11:50.195Z,86.00
2018-08-10T08:14:18.699Z,85.30
2018-08-10T08:16:47.158Z,85.40
2018-08-10T08:19:15.598Z,84.60
2018-08-10T08:21:55.921Z,83.70
2018-08-10T08:24:24.363Z,83.70
2018-08-10T08:26:52.790Z,83.90
2018-08-10T08:29:21.248Z,83.80
2018-08-10T08:31:49.665Z,83.50
2018-08-10T08:34:18.271Z,83.40
2018-08-10T08:36:46.700Z,83.20
2018-08-10T08:39:28.540Z,83.20
2018-08-10T08:41:56.950Z,82.20
2018-08-10T08:44:41.358Z,80.70
2018-08-10T08:47:09.812Z,80.10
2018-08-10T08:49:38.293Z,78.40
2018-08-10T08:52:06.882Z,78.00
2018-08-10T08:55:12.033Z,77.90
2018-08-10T08:57:40.488Z,75.20
2018-08-10T09:00:13.128Z,74.10
2018-08-10T09:02:41.667Z,74.10
2018-08-10T09:05:10.591Z,74.60
2018-08-10T09:07:39.513Z,74.60
2018-08-10T09:10:13.254Z,74.40
2018-08-10T09:12:41.875Z,74.60
2018-08-10T09:15:11.906Z,75.10
2018-08-10T09:17:40.399Z,75.30
2018-08-10T09:20:09.393Z,74.80
2018-08-10T09:22:37.927Z,74.70
2018-08-10T09:25:10.739Z,76.00
2018-08-10T09:27:39.237Z,75.60
2018-08-10T09:30:09.091Z,75.30
2018-08-10T09:32:37.571Z,73.60
2018-08-10T09:35:07.092Z,74.20
2018-08-10T09:37:35.511Z,73.90
2018-08-10T09:40:05.246Z,72.80
2018-08-10T09:42:33.740Z,71.80
2018-08-10T09:45:02.175Z,71.70
2018-08-10T09:47:30.583Z,71.10
2018-08-10T09:49:59.010Z,71.40
2018-08-10T09:52:27.450Z,70.80
2018-08-10T09:55:37.743Z,70.40
2018-08-10T09:58:12.445Z,69.70
2018-08-10T10:00:46.172Z,68.80
2018-08-10T10:03:25.787Z,67.30
2018-08-10T10:05:55.936Z,68.40
2018-08-10T10:08:25.079Z,69.40
2018-08-10T10:10:53.573Z,71.00
2018-08-10T10:13:22.096Z,72.50
2018-08-10T10:15:50.522Z,74.20
2018-08-10T10:18:19.414Z,74.10
2018-08-10T10:20:48.404Z,73.40
2018-08-10T10:23:16.910Z,72.80
2018-08-10T10:25:45.357Z,73.10
2018-08-10T10:28:13.797Z,73.60
2018-08-10T10:30:42.246Z,72.60
2018-08-10T10:33:10.735Z,70.70
2018-08-10T10:35:39.255Z,70.00
2018-08-10T10:38:07.671Z,68.80
2018-08-10T10:40:36.103Z,68.80
2018-08-10T10:43:04.626Z,69.20
2018-08-10T10:45:33.040Z,69.70
2018-08-10T10:48:01.486Z,68.70
2018-08-10T10:50:29.924Z,68.00
2018-08-10T10:52:58.440Z,67.00
2018-08-10T10:55:26.923Z,66.30
2018-08-10T10:57:55.349Z,66.40
2018-08-10T11:00:23.767Z,65.80
2018-08-10T11:02:52.245Z,66.80
2018-08-10T11:05:20.690Z,67.20
2018-08-10T11:07:49.119Z,66.10
2018-08-10T11:10:18.657Z,64.80
2018-08-10T11:12:47.161Z,64.10
2018-08-10T11:15:15.731Z,64.10
2018-08-10T11:17:44.175Z,63.80
2018-08-10T11:20:13.327Z,62.90
2018-08-10T11:22:42.882Z,62.20
2018-08-10T11:25:12.756Z,62.00
2018-08-10T11:27:41.991Z,62.50
2018-08-10T11:30:11.054Z,61.90
2018-08-10T11:32:39.658Z,62.40
2018-08-10T11:35:08.488Z,62.50
2018-08-10T11:37:36.978Z,64.40
2018-08-10T11:40:09.505Z,64.10
2018-08-10T11:42:38.075Z,61.90
2018-08-10T11:45:08.608Z,62.60
2018-08-10T11:47:37.303Z,60.20
2018-08-10T11:50:06.172Z,59.20
2018-08-10T11:52:35.100Z,60.20
2018-08-10T11:55:03.564Z,59.60
2018-08-10T11:57:32.096Z,59.40
2018-08-10T12:00:00.476Z,59.00
2018-08-10T12:02:29.006Z,59.50
2018-08-10T12:04:57.474Z,59.60
2018-08-10T12:07:25.933Z,59.60
2018-08-10T12:09:54.399Z,58.40
2018-08-10T12:12:22.968Z,58.30
2018-08-10T12:14:51.400Z,57.30
2018-08-10T12:17:19.887Z,57.00
2018-08-10T12:19:48.355Z,56.00
2018-08-10T12:22:16.874Z,55.40
2018-08-10T12:24:45.383Z,55.80
2018-08-10T12:27:13.847Z,56.40
2018-08-10T12:29:42.266Z,55.30
2018-08-10T12:32:10.847Z,54.20
2018-08-10T12:34:39.296Z,54.50
2018-08-10T12:37:08.122Z,55.00
2018-08-10T12:39:36.579Z,56.20
2018-08-10T12:42:05.034Z,56.50
2018-08-10T12:44:33.466Z,57.20
2018-08-10T12:47:01.997Z,57.30
2018-08-10T12:49:30.450Z,58.20
2018-08-10T12:51:58.909Z,58.40
2018-08-10T12:54:27.430Z,59.70
2018-08-10T12:56:55.916Z,59.80
2018-08-10T12:59:24.539Z,57.90
2018-08-10T13:01:52.988Z,57.80
2018-08-10T13:04:21.476Z,57.40
2018-08-10T13:06:50.066Z,56.80
2018-08-10T13:09:18.740Z,53.70
2018-08-10T13:11:47.184Z,52.30
2018-08-10T13:14:15.712Z,50.70
2018-08-10T13:16:44.177Z,49.30
2018-08-10T13:19:12.640Z,49.80
2018-08-10T13:21:41.118Z,50.00
2018-08-10T13:24:09.651Z,49.80
2018-08-10T13:26:38.065Z,50.70
2018-08-10T13:29:06.541Z,52.30
2018-08-10T13:31:34.979Z,52.30
2018-08-10T13:34:03.480Z,51.40
2018-08-10T13:36:31.935Z,51.30
2018-08-10T13:39:00.391Z,51.30
2018-08-10T13:41:28.811Z,51.20
2018-08-10T13:43:57.295Z,51.20
2018-08-10T13:46:25.753Z,51.70
2018-08-10T13:48:54.201Z,52.10
2018-08-10T13:51:22.683Z,51.70
2018-08-10T13:53:51.208Z,52.00
2018-08-10T13:56:19.659Z,52.20
2018-08-10T13:58:48.206Z,52.80
2018-08-10T14:01:16.628Z,52.00
2018-08-10T14:03:45.144Z,51.90
2018-08-10T14:06:13.624Z,50.50
2018-08-10T14:08:42.060Z,49.60
2018-08-10T14:11:10.547Z,47.70
2018-08-10T14:13:39.146Z,45.50
2018-08-10T14:16:07.695Z,44.40
2018-08-10T14:18:36.166Z,44.00
2018-08-10T14:21:04.657Z,44.00
2018-08-10T14:23:33.305Z,44.90
2018-08-10T14:26:01.738Z,45.00
2018-08-10T14:28:30.163Z,46.10
2018-08-10T14:30:58.647Z,45.90
2018-08-10T14:33:27.221Z,46.70
2018-08-10T14:35:55.630Z,47.90
2018-08-10T14:38:24.048Z,48.20
2018-08-10T14:40:52.519Z,49.80
2018-08-10T14:43:21.074Z,49.00
2018-08-10T14:45:49.491Z,49.10
2018-08-10T14:48:17.943Z,49.60
2018-08-10T14:50:46.383Z,50.20
2018-08-10T14:53:14.871Z,50.00
2018-08-10T14:55:43.332Z,50.40
2018-08-10T14:58:11.786Z,50.60
2018-08-10T15:00:40.262Z,51.40
2018-08-10T15:03:08.877Z,51.30
2018-08-10T15:05:37.376Z,52.20
2018-08-10T15:08:06.249Z,53.50
2018-08-10T15:10:35.026Z,56.50
2018-08-10T15:13:03.778Z,59.60
2018-08-10T15:15:32.033Z,61.40
2018-08-10T15:18:00.488Z,62.40
2018-08-10T15:20:28.914Z,62.80
2018-08-10T15:22:57.394Z,64.20
2018-08-10T15:25:25.873Z,64.90
2018-08-10T15:27:54.576Z,65.40
2018-08-10T15:30:23.015Z,64.80
2018-08-10T15:32:51.513Z,65.10
2018-08-10T15:35:20.002Z,65.50
2018-08-10T15:37:48.454Z,64.90
2018-08-10T15:40:18.223Z,64.90
2018-08-10T15:42:46.747Z,62.80
2018-08-10T15:45:16.335Z,62.40
2018-08-10T15:47:45.323Z,62.50
2018-08-10T15:50:13.927Z,62.50
2018-08-10T15:52:43.560Z,61.40
2018-08-10T15:55:12.358Z,60.80
2018-08-10T15:57:41.074Z,59.70
2018-08-10T16:00:11.846Z,58.80
2018-08-10T16:02:40.488Z,58.10
2018-08-10T16:05:09.949Z,57.90
2018-08-10T16:07:38.638Z,57.30
2018-08-10T16:10:08.042Z,56.50
2018-08-10T16:12:37.113Z,56.30
2018-08-10T16:15:39.410Z,55.50
2018-08-10T16:18:08.139Z,54.90
2018-08-10T16:20:36.585Z,55.10
2018-08-10T16:23:05.138Z,54.80
2018-08-10T16:25:33.591Z,54.20
2018-08-10T16:28:02.099Z,54.80
2018-08-10T16:30:30.538Z,56.40
2018-08-10T16:32:59.036Z,56.90
2018-08-10T16:35:27.465Z,56.80
2018-08-10T16:37:56.099Z,56.50
2018-08-10T16:40:24.605Z,56.90
2018-08-10T16:42:53.267Z,57.60
2018-08-10T16:45:21.726Z,60.00
2018-08-10T16:47:50.325Z,61.20
2018-08-10T16:50:19.576Z,61.70
2018-08-10T16:52:48.124Z,61.60
2018-08-10T16:55:18.867Z,62.30
2018-08-10T16:57:47.895Z,61.10
2018-08-10T17:00:18.064Z,60.10
2018-08-10T17:02:46.996Z,60.30
2018-08-10T17:05:15.531Z,60.50
2018-08-10T17:07:44.018Z,59.40
2018-08-10T17:10:12.598Z,58.80
2018-08-10T17:12:42.336Z,59.60
2018-08-10T17:15:12.993Z,61.20
2018-08-10T17:17:42.279Z,63.40
2018-08-10T17:20:11.279Z,65.90
2018-08-10T17:22:40.078Z,67.90
2018-08-10T17:25:09.860Z,68.80
2018-08-10T17:27:38.323Z,69.20
2018-08-10T17:30:09.174Z,69.60
2018-08-10T17:32:37.996Z,69.30
2018-08-10T17:35:07.578Z,69.30
2018-08-10T17:37:36.097Z,70.10
2018-08-10T17:40:05.403Z,71.20
2018-08-10T17:42:34.284Z,72.00
2018-08-10T17:45:02.842Z,72.70
2018-08-10T17:47:32.359Z,73.20
2018-08-10T17:50:00.800Z,73.40
2018-08-10T17:52:29.320Z,73.50
2018-08-10T17:54:57.890Z,73.90
2018-08-10T17:57:26.446Z,74.80
2018-08-10T17:59:54.878Z,74.40
2018-08-10T18:02:23.454Z,75.40
2018-08-10T18:04:51.938Z,75.10
2018-08-10T18:07:20.498Z,74.50
2018-08-10T18:09:49.123Z,73.60
2018-08-10T18:12:17.711Z,73.40
2018-08-10T18:14:46.284Z,72.50
2018-08-10T18:17:14.795Z,72.00
2018-08-10T18:19:43.429Z,70.60
2018-08-10T18:22:13.375Z,70.10
2018-08-10T18:24:42.119Z,71.00
2018-08-10T18:27:10.610Z,72.40
2018-08-10T18:29:39.209Z,73.60
2018-08-10T18:32:07.789Z,75.60
2018-08-10T18:34:36.223Z,76.30
2018-08-10T18:37:05.596Z,77.50
2018-08-10T18:39:34.059Z,78.70
2018-08-10T18:42:02.634Z,79.70
2018-08-10T18:44:31.087Z,80.50
2018-08-10T18:46:59.521Z,81.20
2018-08-10T18:49:27.983Z,82.30
2018-08-10T18:51:56.419Z,82.20
2018-08-10T18:54:24.873Z,82.70
2018-08-10T18:56:53.361Z,82.70
2018-08-10T18:59:21.754Z,82.80
2018-08-10T19:01:50.283Z,83.10
2018-08-10T19:04:18.836Z,82.90
2018-08-10T19:06:47.296Z,82.90
2018-08-10T19:09:15.762Z,83.40
2018-08-10T19:11:44.225Z,83.20
2018-08-10T19:14:12.785Z,83.30
2018-08-10T19:16:41.263Z,83.60
2018-08-10T19:19:09.695Z,83.90
2018-08-10T19:21:38.125Z,84.10
2018-08-10T19:24:06.643Z,84.60
2018-08-10T19:26:35.070Z,84.90
2018-08-10T19:29:03.493Z,85.00
2018-08-10T19:31:31.927Z,84.50
2018-08-10T19:34:11.566Z,85.40
2018-08-10T19:36:40.074Z,85.50
2018-08-10T19:39:09.702Z,85.50
2018-08-10T19:41:41.204Z,85.20
2018-08-10T19:44:09.706Z,85.00
2018-08-10T19:46:38.147Z,85.20
2018-08-10T19:49:06.560Z,85.70
2018-08-10T19:51:35.055Z,86.40
2018-08-10T19:54:14.689Z,86.60
2018-08-10T19:56:43.152Z,86.80
2018-08-10T19:59:11.591Z,87.80
2018-08-10T20:01:40.015Z,87.60
2018-08-10T20:04:08.567Z,88.00
2018-08-10T20:06:37.008Z,88.20
2018-08-10T20:09:08.407Z,88.50
2018-08-10T20:11:47.815Z,89.10
2018-08-10T20:14:17.071Z,89.30
2018-08-10T20:16:45.521Z,89.50
2018-08-10T20:19:14.025Z,89.80
2018-08-10T20:21:42.682Z,89.70
2018-08-10T20:25:40.420Z,90.10
2018-08-10T20:28:17.388Z,90.30
2018-08-10T20:30:45.951Z,90.40
2018-08-10T20:33:15.530Z,90.50
2018-08-10T20:35:44.108Z,90.50
2018-08-10T20:38:12.595Z,90.10
2018-08-10T20:40:41.161Z,90.30
2018-08-10T20:43:09.642Z,90.10
2018-08-10T20:45:38.074Z,89.90
2018-08-10T20:48:06.632Z,90.00
2018-08-10T20:50:42.434Z,89.30
2018-08-10T20:53:10.942Z,89.00
2018-08-10T20:55:39.459Z,89.40
2018-08-10T20:58:07.891Z,89.20
2018-08-10T21:00:36.360Z,89.40
2018-08-10T21:03:05.108Z,89.70
2018-08-10T21:05:33.575Z,90.00
2018-08-10T21:08:02.026Z,89.90
2018-08-10T21:10:30.850Z,90.00
2018-08-10T21:12:59.388Z,89.70
2018-08-10T21:15:27.892Z,89.70
2018-08-10T21:17:56.331Z,90.00
2018-08-10T21:20:24.772Z,90.10
2018-08-10T21:22:53.396Z,90.00
2018-08-10T21:25:21.828Z,90.00
2018-08-10T21:27:50.299Z,90.00
2018-08-10T21:30:19.728Z,88.80
2018-08-10T21:32:48.820Z,88.70
2018-08-10T21:35:17.332Z,88.90
2018-08-10T21:37:45.779Z,88.90
2018-08-10T21:40:14.218Z,88.70
2018-08-10T21:42:42.971Z,88.80
2018-08-10T21:45:11.507Z,89.00
2018-08-10T21:47:39.971Z,89.20
2018-08-10T21:50:11.588Z,89.40
2018-08-10T21:52:40.228Z,89.50
2018-08-10T21:55:08.695Z,89.20
2018-08-10T21:57:37.228Z,89.20
2018-08-10T22:00:14.011Z,89.50
2018-08-10T22:02:42.557Z,89.20
2018-08-10T22:05:11.015Z,89.20
2018-08-10T22:07:39.558Z,89.20
2018-08-10T22:10:08.021Z,88.80
2018-08-10T22:12:41.729Z,88.70
2018-08-10T22:15:15.508Z,88.70
2018-08-10T22:17:49.473Z,88.70
2018-08-10T22:20:17.938Z,89.00
2018-08-10T22:22:46.499Z,89.60
2018-08-10T22:25:14.968Z,89.70
2018-08-10T22:27:43.434Z,89.80
2018-08-10T22:30:11.858Z,90.00
2018-08-10T22:39:26.772Z,89.80
2018-08-10T22:41:55.215Z,89.60
2018-08-10T22:44:23.659Z,89.70
2018-08-10T22:46:52.104Z,90.10
2018-08-10T22:49:20.568Z,90.20
2018-08-10T22:51:49.061Z,90.20
2018-08-10T22:54:17.527Z,90.10
2018-08-10T22:56:45.980Z,90.20
2018-08-10T22:59:14.489Z,90.30
2018-08-10T23:01:42.970Z,90.20
2018-08-10T23:04:11.514Z,90.20
2018-08-10T23:06:39.958Z,90.20
2018-08-10T23:09:09.978Z,90.20
2018-08-10T23:11:38.640Z,90.20
2018-08-10T23:14:07.120Z,90.30
2018-08-10T23:16:35.642Z,90.30
2018-08-10T23:19:04.207Z,90.30
2018-08-10T23:21:32.635Z,90.50
2018-08-10T23:24:01.142Z,90.80
2018-08-10T23:26:29.614Z,91.20
2018-08-10T23:28:58.151Z,91.40
2018-08-10T23:31:26.628Z,91.90
2018-08-10T23:33:55.238Z,91.70
2018-08-10T23:36:23.716Z,91.60
2018-08-10T23:38:52.311Z,91.80
2018-08-10T23:41:20.797Z,91.60
2018-08-10T23:43:49.403Z,91.80
2018-08-10T23:46:18.882Z,91.80
2018-08-10T23:48:47.310Z,91.90
2018-08-10T23:51:15.779Z,91.90
2018-08-10T23:53:44.250Z,92.10
2018-08-10T23:56:12.699Z,92.20
2018-08-10T23:58:41.435Z,92.00
